createdAt,value
2018-01-14T00:00:43.041Z,81.61
2018-01-14T00:01:54.010Z,81.37
2018-01-14T00:03:00.238Z,81.42
2018-01-14T00:04:06.460Z,81.27
2018-01-14T00:05:12.704Z,81.37
2018-01-14T00:06:18.871Z,81.50
2018-01-14T00:07:25.026Z,81.51
2018-01-14T00:08:31.226Z,81.47
2018-01-14T00:09:37.040Z,81.84
2018-01-14T00:10:43.030Z,81.90
2018-01-14T00:11:56.046Z,81.90
2018-01-14T00:13:02.241Z,81.87
2018-01-14T00:14:12.425Z,81.77
2018-01-14T00:15:18.587Z,81.27
2018-01-14T00:16:24.772Z,81.12
2018-01-14T00:17:32.853Z,81.31
2018-01-14T00:18:39.038Z,81.58
2018-01-14T00:19:45.260Z,81.71
2018-01-14T00:20:51.466Z,81.59
2018-01-14T00:21:57.665Z,81.82
2018-01-14T00:23:03.870Z,81.98
2018-01-14T00:24:10.344Z,82.02
2018-01-14T00:25:16.577Z,82.04
2018-01-14T00:26:27.992Z,82.22
2018-01-14T00:27:35.075Z,82.30
2018-01-14T00:28:41.303Z,82.37
2018-01-14T00:29:47.505Z,82.34
2018-01-14T00:30:53.748Z,82.34
2018-01-14T00:31:59.903Z,82.36
2018-01-14T00:33:06.225Z,83.01
2018-01-14T00:34:12.536Z,83.07
2018-01-14T00:35:18.671Z,83.08
2018-01-14T00:36:24.473Z,83.11
2018-01-14T00:37:30.683Z,83.67
2018-01-14T00:38:36.872Z,83.92
2018-01-14T00:39:43.046Z,83.87
2018-01-14T00:40:51.098Z,83.73
2018-01-14T00:41:57.303Z,83.57
2018-01-14T00:43:03.517Z,83.53
2018-01-14T00:44:09.688Z,83.66
2018-01-14T00:45:15.826Z,83.46
2018-01-14T00:46:22.048Z,83.16
2018-01-14T00:47:28.196Z,82.95
2018-01-14T00:48:34.360Z,83.18
2018-01-14T00:49:40.552Z,83.35
2018-01-14T00:50:46.755Z,83.74
2018-01-14T00:51:52.966Z,84.16
2018-01-14T00:52:59.135Z,84.20
2018-01-14T00:54:05.009Z,84.25
2018-01-14T00:55:13.153Z,84.21
2018-01-14T00:56:19.378Z,83.97
2018-01-14T00:57:25.562Z,83.96
2018-01-14T00:58:31.904Z,83.87
2018-01-14T00:59:38.062Z,83.76
2018-01-14T01:00:44.220Z,83.83
2018-01-14T01:01:50.136Z,83.89
2018-01-14T01:02:56.323Z,83.93
2018-01-14T01:04:02.524Z,84.09
2018-01-14T01:05:08.694Z,84.05
2018-01-14T01:06:14.895Z,84.35
2018-01-14T01:07:21.071Z,84.35
2018-01-14T01:08:27.236Z,84.55
2018-01-14T01:09:33.415Z,84.57
2018-01-14T01:10:39.587Z,84.49
2018-01-14T01:11:45.811Z,84.49
2018-01-14T01:12:52.047Z,84.79
2018-01-14T01:14:03.391Z,85.04
2018-01-14T01:15:09.567Z,85.38
2018-01-14T01:16:16.676Z,85.36
2018-01-14T01:17:22.939Z,85.48
2018-01-14T01:18:29.973Z,85.56
2018-01-14T01:19:36.166Z,85.52
2018-01-14T01:20:42.405Z,85.78
2018-01-14T01:21:50.559Z,85.50
2018-01-14T01:22:59.684Z,85.24
2018-01-14T01:24:05.875Z,85.71
2018-01-14T01:25:12.065Z,86.05
2018-01-14T01:26:18.088Z,85.95
2018-01-14T01:27:24.274Z,86.00
2018-01-14T01:28:30.622Z,86.18
2018-01-14T01:29:36.614Z,86.13
2018-01-14T01:30:42.911Z,86.00
2018-01-14T01:31:49.108Z,85.70
2018-01-14T01:32:55.316Z,85.73
2018-01-14T01:34:01.539Z,85.93
2018-01-14T01:35:07.504Z,86.10
2018-01-14T01:36:13.765Z,86.57
2018-01-14T01:37:19.934Z,86.65
2018-01-14T01:38:26.114Z,87.19
2018-01-14T01:39:32.388Z,87.33
2018-01-14T01:40:38.587Z,87.40
2018-01-14T01:41:44.815Z,87.13
2018-01-14T01:42:51.160Z,87.18
2018-01-14T01:43:58.736Z,87.06
2018-01-14T01:45:05.760Z,87.42
2018-01-14T01:46:13.320Z,87.39
2018-01-14T01:47:20.460Z,87.56
2018-01-14T01:48:27.015Z,87.69
2018-01-14T01:49:33.472Z,87.93
2018-01-14T01:50:41.037Z,87.92
2018-01-14T01:51:47.849Z,87.87
2018-01-14T01:52:54.566Z,88.15
2018-01-14T01:54:01.601Z,88.27
2018-01-14T01:55:08.542Z,87.93
2018-01-14T01:56:15.246Z,87.89
2018-01-14T01:57:21.880Z,87.55
2018-01-14T01:58:28.545Z,87.87
2018-01-14T01:59:35.431Z,87.82
2018-01-14T02:00:41.812Z,88.34
2018-01-14T02:01:47.386Z,88.43
2018-01-14T02:02:54.175Z,88.36
2018-01-14T02:04:00.842Z,88.21
2018-01-14T02:05:07.798Z,87.99
2018-01-14T02:06:14.086Z,87.46
2018-01-14T02:07:20.731Z,87.71
2018-01-14T02:08:26.940Z,87.80
2018-01-14T02:09:33.490Z,87.92
2018-01-14T02:10:39.663Z,88.23
2018-01-14T02:11:46.480Z,88.15
2018-01-14T02:12:53.594Z,88.12
2018-01-14T02:14:00.575Z,88.39
2018-01-14T02:15:07.084Z,88.28
2018-01-14T02:16:14.018Z,88.22
2018-01-14T02:17:20.898Z,88.49
2018-01-14T02:18:27.517Z,88.71
2018-01-14T02:19:42.205Z,88.90
2018-01-14T02:20:49.044Z,88.70
2018-01-14T02:21:55.626Z,88.60
2018-01-14T02:23:02.048Z,88.19
2018-01-14T02:24:08.810Z,88.55
2018-01-14T02:25:15.419Z,88.87
2018-01-14T02:26:22.011Z,88.68
2018-01-14T02:27:28.871Z,88.66
2018-01-14T02:28:35.151Z,88.93
2018-01-14T02:29:42.225Z,88.91
2018-01-14T02:30:48.881Z,88.80
2018-01-14T02:31:55.525Z,88.51
2018-01-14T02:33:01.954Z,88.43
2018-01-14T02:34:08.392Z,88.49
2018-01-14T02:35:14.767Z,88.44
2018-01-14T02:36:22.594Z,88.64
2018-01-14T02:37:29.024Z,88.99
2018-01-14T02:38:40.507Z,89.21
2018-01-14T02:39:47.163Z,89.54
2018-01-14T02:40:53.957Z,89.27
2018-01-14T02:42:00.689Z,89.05
2018-01-14T02:43:07.994Z,89.04
2018-01-14T02:44:14.384Z,88.60
2018-01-14T02:45:21.347Z,88.92
2018-01-14T02:46:27.790Z,89.00
2018-01-14T02:47:34.552Z,88.90
2018-01-14T02:48:41.101Z,89.11
2018-01-14T02:49:50.460Z,89.14
2018-01-14T02:50:57.045Z,89.01
2018-01-14T02:52:03.378Z,88.85
2018-01-14T02:53:09.576Z,89.25
2018-01-14T02:54:16.270Z,89.18
2018-01-14T02:55:23.730Z,89.49
2018-01-14T02:56:31.375Z,89.44
2018-01-14T02:57:38.525Z,89.37
2018-01-14T02:58:45.398Z,89.13
2018-01-14T02:59:52.332Z,89.08
2018-01-14T03:01:00.335Z,89.42
2018-01-14T03:02:07.625Z,89.46
2018-01-14T03:03:14.817Z,89.54
2018-01-14T03:04:23.054Z,89.75
2018-01-14T03:05:31.101Z,89.75
2018-01-14T03:06:38.345Z,89.50
2018-01-14T03:07:51.957Z,90.15
2018-01-14T03:08:58.200Z,90.43
2018-01-14T03:10:04.399Z,90.18
2018-01-14T03:11:10.591Z,90.15
2018-01-14T03:12:16.849Z,90.22
2018-01-14T03:13:23.051Z,90.41
2018-01-14T03:14:29.274Z,90.28
2018-01-14T03:15:37.141Z,90.11
2018-01-14T03:16:43.053Z,89.93
2018-01-14T03:17:49.330Z,90.31
2018-01-14T03:18:55.482Z,90.13
2018-01-14T03:20:01.633Z,90.25
2018-01-14T03:21:07.822Z,90.05
2018-01-14T03:22:14.045Z,90.44
2018-01-14T03:23:20.260Z,90.69
2018-01-14T03:24:26.407Z,90.80
2018-01-14T03:25:32.637Z,90.51
2018-01-14T03:26:38.804Z,90.29
2018-01-14T03:27:45.024Z,89.99
2018-01-14T03:28:51.187Z,90.37
2018-01-14T03:29:57.388Z,90.61
2018-01-14T03:31:03.576Z,91.08
2018-01-14T03:32:09.775Z,91.16
2018-01-14T03:33:15.944Z,91.06
2018-01-14T03:34:22.160Z,91.10
2018-01-14T03:35:28.400Z,91.11
2018-01-14T03:36:34.651Z,91.30
2018-01-14T03:37:40.815Z,91.60
2018-01-14T03:38:46.984Z,91.36
2018-01-14T03:39:53.158Z,91.12
2018-01-14T03:40:59.366Z,90.72
2018-01-14T03:42:05.541Z,90.69
2018-01-14T03:43:11.854Z,90.33
2018-01-14T03:44:18.056Z,90.37
2018-01-14T03:45:24.267Z,90.54
2018-01-14T03:46:30.465Z,90.88
2018-01-14T03:47:36.655Z,90.82
2018-01-14T03:48:42.906Z,91.16
2018-01-14T03:49:49.096Z,91.12
2018-01-14T03:50:55.301Z,90.83
2018-01-14T03:52:05.546Z,90.52
2018-01-14T03:53:11.819Z,90.30
2018-01-14T03:54:18.939Z,90.64
2018-01-14T03:55:25.179Z,90.71
2018-01-14T03:56:31.404Z,90.86
2018-01-14T03:57:37.673Z,90.98
2018-01-14T03:58:45.907Z,90.88
2018-01-14T03:59:52.085Z,90.87
2018-01-14T04:00:58.308Z,90.71
2018-01-14T04:02:04.579Z,91.57
2018-01-14T04:03:10.763Z,91.53
2018-01-14T04:04:17.916Z,91.66
2018-01-14T04:05:24.128Z,91.80
2018-01-14T04:06:30.338Z,91.77
2018-01-14T04:07:36.552Z,91.61
2018-01-14T04:08:42.841Z,91.89
2018-01-14T04:09:49.014Z,91.80
2018-01-14T04:10:55.189Z,92.00
2018-01-14T04:12:01.399Z,92.10
2018-01-14T04:13:07.610Z,91.68
2018-01-14T04:14:13.793Z,91.54
2018-01-14T04:15:19.788Z,91.55
2018-01-14T04:16:25.990Z,91.27
2018-01-14T04:17:32.195Z,91.45
2018-01-14T04:18:38.203Z,91.35
2018-01-14T04:19:44.419Z,91.62
2018-01-14T04:20:50.644Z,92.03
2018-01-14T04:21:56.834Z,92.15
2018-01-14T04:23:03.890Z,92.35
2018-01-14T04:24:10.155Z,92.32
2018-01-14T04:25:16.322Z,92.14
2018-01-14T04:26:22.579Z,91.92
2018-01-14T04:27:28.847Z,91.36
2018-01-14T04:28:35.033Z,91.46
2018-01-14T04:29:42.140Z,91.39
2018-01-14T04:30:48.344Z,92.16
2018-01-14T04:31:54.530Z,92.46
2018-01-14T04:33:00.806Z,92.28
2018-01-14T04:34:06.954Z,92.35
2018-01-14T04:35:13.109Z,92.48
2018-01-14T04:36:19.292Z,92.67
2018-01-14T04:37:25.428Z,92.61
2018-01-14T04:38:31.864Z,92.45
2018-01-14T04:39:38.043Z,92.13
2018-01-14T04:40:44.183Z,92.57
2018-01-14T04:41:50.365Z,92.85
2018-01-14T04:42:56.723Z,92.76
2018-01-14T04:44:02.867Z,93.03
2018-01-14T04:45:09.057Z,92.71
2018-01-14T04:46:15.195Z,92.76
2018-01-14T04:47:21.404Z,92.92
2018-01-14T04:48:27.586Z,93.10
2018-01-14T04:49:33.792Z,93.10
2018-01-14T04:50:39.989Z,92.98
2018-01-14T04:51:46.239Z,92.71
2018-01-14T04:52:52.483Z,93.10
2018-01-14T04:53:59.575Z,92.74
2018-01-14T04:55:05.820Z,92.98
2018-01-14T04:56:12.030Z,93.21
2018-01-14T04:57:18.215Z,93.30
2018-01-14T04:58:24.422Z,93.50
2018-01-14T04:59:30.831Z,93.22
2018-01-14T05:00:36.716Z,92.89
2018-01-14T05:01:42.846Z,92.95
2018-01-14T05:02:48.988Z,92.67
2018-01-14T05:03:55.223Z,92.65
2018-01-14T05:05:01.451Z,92.53
2018-01-14T05:06:07.635Z,92.24
2018-01-14T05:07:13.768Z,92.20
2018-01-14T05:08:20.002Z,92.61
2018-01-14T05:09:26.235Z,92.86
2018-01-14T05:10:32.468Z,93.18
2018-01-14T05:11:38.646Z,93.23
2018-01-14T05:12:44.816Z,93.17
2018-01-14T05:13:52.992Z,93.08
2018-01-14T05:14:59.154Z,92.99
2018-01-14T05:16:05.311Z,93.37
2018-01-14T05:17:11.534Z,93.15
2018-01-14T05:18:18.710Z,92.75
2018-01-14T05:19:24.884Z,93.16
2018-01-14T05:20:31.108Z,93.22
2018-01-14T05:21:37.273Z,92.85
2018-01-14T05:22:43.506Z,92.59
2018-01-14T05:23:49.811Z,92.41
2018-01-14T05:24:56.055Z,92.83
2018-01-14T05:26:02.246Z,92.93
2018-01-14T05:27:08.478Z,92.84
2018-01-14T05:28:14.652Z,92.79
2018-01-14T05:29:20.920Z,93.27
2018-01-14T05:30:27.093Z,93.20
2018-01-14T05:31:33.384Z,93.17
2018-01-14T05:32:39.612Z,92.84
2018-01-14T05:33:45.780Z,92.82
2018-01-14T05:34:52.005Z,92.90
2018-01-14T05:35:58.211Z,92.87
2018-01-14T05:37:10.368Z,92.95
2018-01-14T05:38:16.580Z,92.79
2018-01-14T05:39:22.764Z,93.03
2018-01-14T05:40:28.927Z,92.97
2018-01-14T05:41:35.136Z,93.30
2018-01-14T05:42:41.291Z,93.41
2018-01-14T05:43:47.548Z,93.20
2018-01-14T05:44:54.043Z,92.98
2018-01-14T05:46:00.201Z,93.18
2018-01-14T05:47:06.374Z,93.35
2018-01-14T05:48:12.579Z,93.13
2018-01-14T05:49:18.784Z,92.93
2018-01-14T05:50:24.992Z,92.80
2018-01-14T05:51:31.200Z,92.67
2018-01-14T05:52:37.443Z,92.30
2018-01-14T05:53:43.596Z,92.76
2018-01-14T05:54:49.781Z,92.78
2018-01-14T05:55:55.960Z,92.82
2018-01-14T05:57:02.187Z,92.47
2018-01-14T05:58:08.334Z,92.63
2018-01-14T05:59:14.549Z,92.51
2018-01-14T06:00:20.733Z,92.26
2018-01-14T06:01:26.917Z,92.55
2018-01-14T06:02:33.131Z,92.84
2018-01-14T06:03:39.325Z,92.82
2018-01-14T06:04:45.572Z,92.68
2018-01-14T06:05:51.418Z,92.77
2018-01-14T06:06:57.638Z,92.89
2018-01-14T06:08:04.035Z,93.29
2018-01-14T06:09:09.832Z,93.31
2018-01-14T06:10:15.916Z,93.26
2018-01-14T06:11:22.101Z,93.31
2018-01-14T06:12:28.281Z,93.21
2018-01-14T06:13:34.616Z,93.35
2018-01-14T06:14:40.794Z,93.22
2018-01-14T06:15:46.995Z,93.05
2018-01-14T06:16:53.169Z,93.04
2018-01-14T06:17:59.355Z,92.83
2018-01-14T06:19:05.224Z,92.66
2018-01-14T06:20:11.374Z,92.68
2018-01-14T06:21:17.547Z,93.19
2018-01-14T06:22:23.768Z,93.20
2018-01-14T06:23:29.983Z,93.10
2018-01-14T06:24:36.115Z,92.95
2018-01-14T06:25:42.284Z,92.86
2018-01-14T06:26:48.541Z,92.86
2018-01-14T06:27:54.831Z,92.73
2018-01-14T06:29:01.015Z,92.11
2018-01-14T06:30:07.241Z,92.16
2018-01-14T06:31:13.423Z,92.62
2018-01-14T06:32:19.623Z,92.85
2018-01-14T06:33:25.907Z,93.16
2018-01-14T06:34:32.139Z,93.11
2018-01-14T06:35:38.383Z,93.21
2018-01-14T06:36:44.852Z,93.06
2018-01-14T06:37:51.031Z,92.92
2018-01-14T06:38:57.379Z,92.85
2018-01-14T06:40:03.628Z,93.12
2018-01-14T06:41:09.846Z,93.12
2018-01-14T06:42:16.011Z,93.22
2018-01-14T06:43:23.131Z,93.23
2018-01-14T06:44:29.349Z,93.60
2018-01-14T06:45:35.552Z,93.79
2018-01-14T06:46:41.744Z,94.01
2018-01-14T06:47:47.917Z,93.83
2018-01-14T06:48:54.150Z,93.75
2018-01-14T06:50:00.309Z,93.97
2018-01-14T06:51:06.521Z,93.88
2018-01-14T06:52:12.707Z,93.94
2018-01-14T06:53:18.929Z,94.05
2018-01-14T06:54:25.116Z,94.00
2018-01-14T06:55:31.361Z,93.92
2018-01-14T06:56:37.563Z,93.70
2018-01-14T06:57:44.086Z,93.53
2018-01-14T06:58:50.294Z,93.53
2018-01-14T06:59:56.480Z,93.59
2018-01-14T07:01:02.706Z,93.41
2018-01-14T07:02:08.889Z,93.16
2018-01-14T07:03:15.055Z,93.53
2018-01-14T07:04:21.221Z,93.45
2018-01-14T07:05:27.445Z,93.20
2018-01-14T07:06:33.359Z,93.67
2018-01-14T07:07:39.548Z,93.60
2018-01-14T07:08:45.700Z,93.76
2018-01-14T07:09:51.951Z,93.67
2018-01-14T07:11:02.046Z,93.26
2018-01-14T07:12:08.259Z,93.26
2018-01-14T07:13:14.420Z,93.12
2018-01-14T07:14:20.677Z,93.12
2018-01-14T07:15:26.926Z,93.11
2018-01-14T07:16:33.151Z,93.09
2018-01-14T07:17:39.310Z,92.80
2018-01-14T07:18:45.515Z,92.51
2018-01-14T07:19:51.686Z,92.57
2018-01-14T07:20:57.932Z,92.75
2018-01-14T07:22:04.091Z,92.82
2018-01-14T07:23:10.330Z,93.21
2018-01-14T07:24:16.625Z,93.33
2018-01-14T07:25:22.827Z,93.21
2018-01-14T07:26:29.016Z,93.35
2018-01-14T07:27:35.188Z,93.23
2018-01-14T07:28:41.393Z,92.80
2018-01-14T07:29:47.559Z,93.30
2018-01-14T07:30:53.754Z,93.12
2018-01-14T07:31:59.891Z,92.90
2018-01-14T07:33:06.153Z,92.84
2018-01-14T07:34:12.316Z,92.92
2018-01-14T07:35:18.602Z,92.58
2018-01-14T07:36:24.814Z,92.36
2018-01-14T07:37:30.952Z,92.39
2018-01-14T07:38:37.126Z,92.33
2018-01-14T07:39:43.287Z,92.96
2018-01-14T07:40:49.443Z,93.08
2018-01-14T07:41:55.673Z,92.75
2018-01-14T07:43:01.820Z,93.21
2018-01-14T07:44:08.003Z,92.90
2018-01-14T07:45:15.002Z,92.66
2018-01-14T07:46:20.949Z,92.33
2018-01-14T07:47:27.286Z,92.34
2018-01-14T07:48:33.819Z,92.06
2018-01-14T07:49:40.194Z,92.14
2018-01-14T07:50:46.397Z,92.24
2018-01-14T07:51:52.567Z,92.20
2018-01-14T07:52:58.721Z,92.61
2018-01-14T07:54:05.730Z,92.52
2018-01-14T07:55:12.888Z,92.39
2018-01-14T07:56:19.087Z,92.23
2018-01-14T07:57:25.317Z,92.17
2018-01-14T07:58:31.484Z,92.21
2018-01-14T07:59:38.128Z,92.69
2018-01-14T08:00:45.923Z,92.35
2018-01-14T08:01:52.259Z,92.35
2018-01-14T08:03:00.535Z,92.88
2018-01-14T08:04:09.286Z,92.78
2018-01-14T08:05:16.084Z,92.64
2018-01-14T08:06:23.182Z,92.60
2018-01-14T08:07:30.741Z,92.46
2018-01-14T08:08:37.571Z,92.15
2018-01-14T08:09:43.935Z,92.07
2018-01-14T08:10:51.556Z,91.88
2018-01-14T08:12:01.263Z,92.08
2018-01-14T08:13:08.906Z,91.92
2018-01-14T08:14:17.701Z,91.38
2018-01-14T08:15:25.717Z,92.11
2018-01-14T08:16:32.553Z,92.01
2018-01-14T08:17:39.935Z,91.54
2018-01-14T08:18:46.637Z,91.43
2018-01-14T08:19:52.841Z,91.32
2018-01-14T08:20:59.024Z,91.29
2018-01-14T08:22:05.638Z,91.34
2018-01-14T08:23:11.926Z,91.24
2018-01-14T08:24:19.445Z,91.17
2018-01-14T08:25:26.557Z,90.87
2018-01-14T08:26:34.539Z,90.90
2018-01-14T08:27:42.591Z,91.19
2018-01-14T08:28:49.192Z,91.55
2018-01-14T08:29:56.029Z,91.75
2018-01-14T08:31:03.619Z,91.56
2018-01-14T08:32:15.629Z,91.27
2018-01-14T08:33:22.331Z,91.00
2018-01-14T08:34:28.993Z,90.93
2018-01-14T08:35:36.024Z,90.75
2018-01-14T08:36:44.165Z,90.71
2018-01-14T08:37:50.447Z,90.66
2018-01-14T08:38:56.672Z,90.71
2018-01-14T08:40:03.251Z,90.58
2018-01-14T08:41:09.945Z,90.07
2018-01-14T08:42:16.378Z,90.08
2018-01-14T08:43:22.761Z,90.73
2018-01-14T08:44:29.399Z,91.18
2018-01-14T08:45:35.878Z,91.19
2018-01-14T08:46:43.284Z,91.14
2018-01-14T08:47:52.312Z,90.83
2018-01-14T08:48:59.921Z,90.51
2018-01-14T08:50:06.922Z,90.69
2018-01-14T08:51:13.914Z,91.29
2018-01-14T08:52:22.364Z,90.93
2018-01-14T08:53:28.977Z,90.62
2018-01-14T08:54:35.806Z,90.19
2018-01-14T08:55:42.289Z,89.97
2018-01-14T08:56:48.848Z,89.80
2018-01-14T08:57:55.153Z,90.38
2018-01-14T08:59:07.321Z,90.80
2018-01-14T09:00:13.772Z,90.69
2018-01-14T09:01:26.659Z,90.45
2018-01-14T09:02:33.525Z,90.23
2018-01-14T09:03:40.921Z,90.86
2018-01-14T09:04:47.082Z,90.71
2018-01-14T09:05:53.263Z,90.47
2018-01-14T09:07:00.559Z,90.25
2018-01-14T09:08:07.202Z,90.18
2018-01-14T09:09:13.996Z,90.12
2018-01-14T09:10:20.629Z,90.02
2018-01-14T09:11:26.648Z,90.12
2018-01-14T09:12:33.546Z,90.54
2018-01-14T09:13:39.820Z,90.62
2018-01-14T09:14:45.992Z,90.26
2018-01-14T09:15:52.959Z,90.25
2018-01-14T09:16:59.756Z,90.24
2018-01-14T09:18:06.353Z,89.87
2018-01-14T09:19:13.416Z,89.95
2018-01-14T09:20:19.685Z,89.99
2018-01-14T09:21:27.009Z,90.05
2018-01-14T09:22:33.734Z,90.08
2018-01-14T09:23:40.305Z,90.03
2018-01-14T09:24:46.914Z,89.48
2018-01-14T09:25:53.386Z,89.32
2018-01-14T09:26:59.561Z,89.15
2018-01-14T09:28:06.283Z,89.50
2018-01-14T09:29:12.422Z,89.48
2018-01-14T09:30:17.886Z,89.46
2018-01-14T09:31:24.025Z,89.16
2018-01-14T09:32:30.258Z,89.23
2018-01-14T09:33:36.478Z,88.71
2018-01-14T09:34:42.675Z,88.53
2018-01-14T09:35:49.172Z,88.82
2018-01-14T09:36:55.408Z,88.73
2018-01-14T09:38:01.651Z,88.51
2018-01-14T09:39:07.811Z,88.27
2018-01-14T09:40:13.994Z,88.09
2018-01-14T09:41:21.152Z,87.98
2018-01-14T09:42:31.484Z,88.00
2018-01-14T09:43:37.746Z,88.23
2018-01-14T09:44:43.899Z,88.34
2018-01-14T09:45:50.108Z,88.55
2018-01-14T09:46:56.241Z,88.00
2018-01-14T09:48:02.415Z,87.94
2018-01-14T09:49:08.668Z,87.35
2018-01-14T09:50:14.904Z,87.76
2018-01-14T09:51:21.182Z,88.23
2018-01-14T09:52:27.430Z,88.20
2018-01-14T09:53:33.942Z,88.42
2018-01-14T09:54:40.320Z,88.37
2018-01-14T09:55:47.374Z,87.83
2018-01-14T09:56:53.508Z,87.66
2018-01-14T09:57:59.756Z,87.35
2018-01-14T09:59:06.026Z,87.23
2018-01-14T10:00:12.282Z,87.11
2018-01-14T10:01:18.530Z,86.89
2018-01-14T10:02:24.982Z,86.77
2018-01-14T10:03:33.220Z,86.41
2018-01-14T10:04:40.224Z,86.86
2018-01-14T10:05:46.888Z,86.64
2018-01-14T10:06:53.281Z,87.02
2018-01-14T10:07:59.764Z,86.99
2018-01-14T10:09:06.019Z,86.78
2018-01-14T10:10:12.365Z,86.62
2018-01-14T10:11:18.622Z,86.79
2018-01-14T10:12:24.848Z,86.87
2018-01-14T10:13:31.012Z,87.19
2018-01-14T10:14:37.714Z,86.95
2018-01-14T10:15:44.125Z,86.92
2018-01-14T10:16:50.835Z,86.33
2018-01-14T10:17:57.280Z,86.52
2018-01-14T10:19:03.611Z,86.50
2018-01-14T10:20:10.331Z,86.76
2018-01-14T10:21:17.019Z,86.65
2018-01-14T10:22:23.688Z,86.56
2018-01-14T10:23:31.472Z,86.30
2018-01-14T10:24:39.396Z,86.24
2018-01-14T10:25:46.609Z,85.78
2018-01-14T10:26:54.298Z,86.14
2018-01-14T10:28:03.869Z,86.17
2018-01-14T10:29:11.806Z,85.64
2018-01-14T10:30:20.684Z,85.82
2018-01-14T10:31:28.125Z,85.56
2018-01-14T10:32:35.911Z,85.43
2018-01-14T10:33:44.476Z,85.25
2018-01-14T10:34:52.498Z,85.34
2018-01-14T10:36:00.260Z,84.98
2018-01-14T10:37:10.311Z,85.07
2018-01-14T10:38:18.241Z,85.10
2018-01-14T10:39:25.258Z,84.86
2018-01-14T10:40:33.705Z,84.84
2018-01-14T10:41:41.962Z,85.09
2018-01-14T10:42:49.046Z,85.09
2018-01-14T10:43:56.515Z,85.63
2018-01-14T10:45:03.851Z,85.47
2018-01-14T10:46:13.615Z,85.03
2018-01-14T10:47:20.537Z,85.16
2018-01-14T10:48:28.526Z,84.99
2018-01-14T10:49:36.664Z,85.92
2018-01-14T10:50:44.405Z,85.93
2018-01-14T10:51:51.463Z,85.90
2018-01-14T10:52:59.264Z,85.72
2018-01-14T10:54:06.062Z,85.48
2018-01-14T10:55:13.226Z,85.06
2018-01-14T10:56:20.347Z,85.08
2018-01-14T10:57:28.795Z,84.77
2018-01-14T10:58:37.458Z,84.49
2018-01-14T10:59:46.016Z,84.72
2018-01-14T11:00:59.582Z,84.83
2018-01-14T11:02:06.990Z,84.96
2018-01-14T11:03:14.328Z,84.84
2018-01-14T11:04:21.816Z,85.09
2018-01-14T11:05:30.094Z,85.10
2018-01-14T11:06:37.930Z,85.14
2018-01-14T11:07:44.911Z,85.11
2018-01-14T11:08:52.110Z,85.10
2018-01-14T11:09:59.392Z,84.64
2018-01-14T11:11:06.533Z,84.68
2018-01-14T11:12:15.684Z,85.30
2018-01-14T11:13:24.835Z,85.26
2018-01-14T11:14:33.211Z,85.50
2018-01-14T11:15:41.272Z,85.25
2018-01-14T11:16:48.522Z,84.76
2018-01-14T11:17:57.187Z,84.17
2018-01-14T11:19:04.440Z,83.97
2018-01-14T11:20:14.052Z,83.82
2018-01-14T11:21:22.044Z,83.93
2018-01-14T11:22:29.421Z,84.52
2018-01-14T11:23:37.080Z,85.14
2018-01-14T11:24:44.080Z,85.01
2018-01-14T11:25:51.435Z,85.05
2018-01-14T11:26:59.323Z,85.37
2018-01-14T11:28:07.435Z,85.27
2018-01-14T11:29:27.303Z,85.20
2018-01-14T11:30:35.224Z,84.84
2018-01-14T11:31:43.063Z,84.23
2018-01-14T11:32:50.629Z,84.28
2018-01-14T11:33:57.671Z,83.93
2018-01-14T11:35:07.164Z,83.44
2018-01-14T11:36:14.739Z,83.21
2018-01-14T11:37:22.193Z,83.84
2018-01-14T11:38:30.127Z,83.87
2018-01-14T11:39:38.252Z,84.27
2018-01-14T11:40:47.896Z,84.42
2018-01-14T11:41:55.198Z,84.51
2018-01-14T11:43:02.651Z,84.33
2018-01-14T11:44:16.200Z,84.17
2018-01-14T11:45:24.001Z,84.21
2018-01-14T11:46:31.484Z,83.88
2018-01-14T11:47:41.766Z,84.01
2018-01-14T11:48:49.205Z,84.13
2018-01-14T11:49:56.943Z,84.31
2018-01-14T11:51:04.424Z,84.17
2018-01-14T11:52:11.747Z,83.75
2018-01-14T11:53:18.486Z,83.81
2018-01-14T11:54:25.730Z,83.51
2018-01-14T11:55:32.585Z,82.95
2018-01-14T11:56:39.418Z,83.16
2018-01-14T11:57:47.642Z,83.10
2018-01-14T11:58:54.711Z,82.86
2018-01-14T12:00:02.066Z,82.99
2018-01-14T12:01:09.227Z,83.09
2018-01-14T12:02:16.942Z,82.85
2018-01-14T12:03:23.521Z,82.75
2018-01-14T12:04:31.630Z,82.64
2018-01-14T12:05:39.579Z,82.55
2018-01-14T12:06:46.671Z,82.95
2018-01-14T12:07:53.789Z,83.35
2018-01-14T12:09:00.567Z,83.37
2018-01-14T12:10:07.751Z,83.24
2018-01-14T12:11:15.650Z,83.14
2018-01-14T12:12:22.906Z,82.72
2018-01-14T12:13:30.569Z,82.92
2018-01-14T12:14:37.747Z,82.97
2018-01-14T12:15:45.382Z,83.21
2018-01-14T12:16:52.844Z,83.08
2018-01-14T12:17:59.683Z,83.27
2018-01-14T12:19:06.606Z,83.26
2018-01-14T12:20:13.485Z,83.60
2018-01-14T12:21:22.740Z,84.00
2018-01-14T12:22:30.663Z,83.98
2018-01-14T12:23:38.294Z,83.89
2018-01-14T12:24:46.499Z,83.18
2018-01-14T12:25:53.935Z,83.07
2018-01-14T12:27:00.536Z,82.70
2018-01-14T12:28:07.224Z,82.62
2018-01-14T12:29:13.540Z,82.50
2018-01-14T12:30:19.798Z,82.39
2018-01-14T12:31:26.003Z,82.50
2018-01-14T12:32:43.549Z,82.38
2018-01-14T12:34:22.737Z,82.25
2018-01-14T12:35:46.839Z,82.37
2018-01-14T12:36:53.041Z,82.02
2018-01-14T12:37:59.928Z,82.11
2018-01-14T12:39:06.509Z,82.33
2018-01-14T12:40:13.080Z,82.31
2018-01-14T12:41:19.476Z,81.96
2018-01-14T12:42:26.816Z,82.07
2018-01-14T12:43:33.659Z,82.29
2018-01-14T12:44:39.852Z,82.40
2018-01-14T12:45:46.081Z,82.36
2018-01-14T12:46:52.289Z,82.64
2018-01-14T12:47:59.251Z,82.56
2018-01-14T12:49:05.389Z,82.70
2018-01-14T12:50:12.088Z,83.07
2018-01-14T12:51:18.404Z,83.06
2018-01-14T12:52:25.711Z,83.09
2018-01-14T12:53:31.966Z,82.67
2018-01-14T12:54:38.158Z,81.66
2018-01-14T12:55:45.135Z,81.84
2018-01-14T12:56:51.623Z,81.96
2018-01-14T12:57:57.827Z,82.03
2018-01-14T12:59:04.356Z,82.25
2018-01-14T13:00:10.593Z,82.30
2018-01-14T13:01:17.027Z,82.35
2018-01-14T13:02:23.301Z,82.23
2018-01-14T13:03:29.598Z,82.39
2018-01-14T13:04:36.226Z,82.43
2018-01-14T13:05:42.666Z,82.46
2018-01-14T13:06:50.068Z,82.34
2018-01-14T13:07:56.594Z,82.05
2018-01-14T13:09:03.624Z,82.07
2018-01-14T13:10:14.667Z,82.29
2018-01-14T13:11:22.255Z,82.38
2018-01-14T13:12:28.462Z,82.52
2018-01-14T13:13:36.096Z,82.75
2018-01-14T13:14:42.374Z,82.61
2018-01-14T13:15:48.752Z,82.74
2018-01-14T13:16:54.974Z,82.65
2018-01-14T13:18:01.349Z,82.78
2018-01-14T13:19:08.430Z,82.59
2018-01-14T13:20:14.723Z,82.67
2018-01-14T13:21:21.695Z,82.55
2018-01-14T13:22:28.468Z,82.67
2018-01-14T13:23:34.691Z,82.69
2018-01-14T13:24:40.965Z,82.69
2018-01-14T13:25:48.198Z,82.74
2018-01-14T13:26:54.567Z,82.94
2018-01-14T13:28:00.802Z,83.07
2018-01-14T13:29:07.834Z,82.82
2018-01-14T13:30:14.187Z,82.97
2018-01-14T13:31:20.866Z,82.46
2018-01-14T13:32:27.229Z,82.17
2018-01-14T13:33:33.488Z,82.47
2018-01-14T13:34:39.723Z,82.32
2018-01-14T13:35:46.125Z,82.50
2018-01-14T13:36:52.917Z,82.46
2018-01-14T13:37:59.160Z,82.31
2018-01-14T13:39:05.295Z,82.08
2018-01-14T13:40:12.335Z,82.19
2018-01-14T13:41:18.608Z,82.16
2018-01-14T13:42:24.857Z,82.09
2018-01-14T13:43:31.143Z,82.26
2018-01-14T13:44:38.331Z,82.37
2018-01-14T13:45:45.521Z,82.69
2018-01-14T13:46:53.805Z,82.70
2018-01-14T13:48:00.104Z,82.87
2018-01-14T13:49:06.672Z,82.38
2018-01-14T13:50:13.507Z,82.42
2018-01-14T13:51:20.327Z,82.22
2018-01-14T13:52:26.606Z,82.33
2018-01-14T13:53:32.823Z,82.16
2018-01-14T13:54:39.045Z,81.85
2018-01-14T13:55:45.349Z,81.91
2018-01-14T13:56:52.560Z,81.63
2018-01-14T13:57:59.196Z,81.85
2018-01-14T13:59:05.444Z,81.70
2018-01-14T14:00:11.774Z,81.51
2018-01-14T14:01:18.670Z,81.72
2018-01-14T14:02:24.915Z,82.06
2018-01-14T14:03:32.437Z,82.59
2018-01-14T14:04:38.318Z,82.25
2018-01-14T14:05:44.539Z,82.23
2018-01-14T14:06:50.793Z,82.26
2018-01-14T14:07:57.028Z,82.50
2018-01-14T14:09:03.371Z,82.74
2018-01-14T14:10:10.296Z,82.88
2018-01-14T14:11:16.578Z,82.72
2018-01-14T14:12:23.943Z,82.76
2018-01-14T14:13:30.184Z,82.88
2018-01-14T14:14:36.546Z,83.10
2018-01-14T14:15:42.908Z,82.68
2018-01-14T14:16:49.060Z,82.53
2018-01-14T14:17:56.448Z,82.57
2018-01-14T14:19:02.308Z,82.76
2018-01-14T14:20:08.519Z,82.71
2018-01-14T14:21:14.784Z,82.81